createdAt,value
2019-05-22T19:05:47.645Z,348.00
2019-05-22T19:06:47.605Z,316.00
2019-05-22T19:07:47.609Z,292.00
2019-05-22T19:08:47.668Z,264.00
2019-05-22T19:09:47.601Z,240.00
2019-05-22T19:10:47.558Z,220.00
2019-05-22T19:11:47.558Z,196.00
2019-05-22T19:12:47.594Z,180.00
2019-05-22T19:13:47.538Z,164.00
2019-05-22T19:14:47.517Z,148.00
2019-05-22T19:15:47.530Z,132.00
2019-05-22T19:16:47.511Z,120.00
2019-05-22T19:17:47.488Z,108.00
2019-05-22T19:18:47.505Z,96.00
2019-05-22T19:19:47.476Z,88.00
2019-05-22T19:20:47.449Z,76.00
2019-05-22T19:21:47.491Z,68.00
2019-05-22T19:22:58.994Z,60.00
2019-05-22T19:23:48.448Z,52.00
2019-05-22T19:24:47.410Z,48.00
2019-05-22T19:25:47.403Z,40.00
2019-05-22T19:26:47.398Z,36.00
2019-05-22T19:27:47.378Z,28.00
2019-05-22T19:28:47.377Z,28.00
2019-05-22T19:29:47.370Z,24.00
2019-05-22T19:30:47.391Z,16.00
2019-05-22T19:31:47.353Z,16.00
2019-05-22T19:32:47.319Z,16.00
2019-05-22T19:33:47.327Z,12.00
2019-05-22T19:34:47.307Z,12.00
2019-05-22T19:35:47.287Z,8.00
2019-05-22T19:36:47.281Z,8.00
2019-05-22T19:37:47.353Z,8.00
2019-05-22T19:38:47.261Z,4.00
2019-05-22T19:39:47.262Z,8.00
2019-05-22T19:40:47.332Z,4.00
2019-05-22T19:42:01.425Z,4.00
2019-05-22T19:42:48.223Z,0.00
2019-05-22T19:43:47.430Z,4.00
2019-05-22T19:44:47.205Z,4.00
2019-05-22T19:45:47.207Z,4.00
2019-05-22T19:46:47.176Z,4.00
2019-05-22T19:47:47.167Z,0.00
2019-05-22T19:48:47.158Z,0.00
2019-05-22T19:49:47.155Z,0.00
2019-05-22T19:50:47.179Z,0.00
2019-05-22T19:51:47.121Z,0.00
2019-05-22T19:52:47.171Z,0.00
2019-05-22T19:53:47.098Z,0.00
2019-05-22T19:54:47.100Z,0.00
2019-05-22T19:55:47.097Z,0.00
2019-05-22T19:56:47.061Z,0.00
2019-05-22T19:57:47.052Z,0.00
2019-05-22T19:58:47.053Z,0.00
2019-05-22T19:59:47.036Z,0.00
2019-05-22T20:00:47.071Z,0.00
2019-05-22T20:01:47.030Z,0.00
2019-05-22T20:02:50.450Z,0.00
2019-05-22T20:03:46.989Z,0.00
2019-05-22T20:04:47.020Z,0.00
2019-05-22T20:05:46.962Z,0.00
2019-05-22T20:06:47.023Z,0.00
2019-05-22T20:07:46.942Z,0.00
2019-05-22T20:08:46.925Z,0.00
2019-05-22T20:09:46.933Z,0.00
2019-05-22T20:10:46.983Z,0.00
2019-05-22T20:11:46.908Z,0.00
2019-05-22T20:12:46.885Z,0.00
2019-05-22T20:13:46.871Z,0.00
2019-05-22T20:14:46.932Z,0.00
2019-05-22T20:15:46.865Z,0.00
2019-05-22T20:16:46.858Z,0.00
2019-05-22T20:17:46.838Z,0.00
2019-05-22T20:18:46.820Z,0.00
2019-05-22T20:19:46.881Z,0.00
2019-05-22T20:20:46.806Z,0.00
2019-05-22T20:21:46.802Z,0.00
2019-05-22T20:22:46.786Z,0.00
2019-05-22T20:23:46.773Z,0.00
2019-05-22T20:24:46.773Z,0.00
2019-05-22T20:25:46.744Z,0.00
2019-05-22T20:26:46.736Z,0.00
2019-05-22T20:27:46.726Z,0.00
2019-05-22T20:28:46.727Z,0.00
2019-05-22T20:29:46.790Z,0.00
2019-05-22T20:30:46.685Z,0.00
2019-05-22T20:31:46.674Z,0.00
2019-05-22T20:32:46.734Z,0.00
2019-05-22T20:33:46.656Z,0.00
2019-05-22T20:34:46.661Z,0.00
2019-05-22T20:35:46.640Z,0.00
2019-05-22T20:36:46.626Z,0.00
2019-05-22T20:37:46.617Z,0.00
2019-05-22T20:38:46.594Z,0.00
2019-05-22T20:39:46.606Z,0.00
2019-05-22T20:40:46.581Z,0.00
2019-05-22T20:41:46.597Z,0.00
2019-05-22T20:42:46.558Z,0.00
2019-05-22T20:43:46.547Z,0.00
2019-05-22T20:44:46.566Z,0.00
2019-05-22T20:45:46.537Z,0.00
2019-05-22T20:46:46.513Z,0.00
2019-05-22T20:47:46.502Z,0.00
2019-05-22T20:48:46.539Z,0.00
2019-05-22T20:49:46.485Z,0.00
2019-05-22T20:50:46.485Z,0.00
2019-05-22T20:51:46.453Z,0.00
2019-05-22T20:52:46.445Z,0.00
2019-05-22T20:53:54.308Z,0.00
2019-05-22T20:54:47.426Z,0.00
2019-05-22T20:55:46.426Z,0.00
2019-05-22T20:56:46.407Z,0.00
2019-05-22T20:57:46.468Z,0.00
2019-05-22T20:58:46.394Z,0.00
2019-05-22T20:59:46.373Z,0.00
2019-05-22T21:00:46.367Z,0.00
2019-05-22T21:01:46.350Z,0.00
2019-05-22T21:02:46.337Z,0.00
2019-05-22T21:03:46.324Z,0.00
2019-05-22T21:04:46.334Z,0.00
2019-05-22T21:05:46.380Z,0.00
2019-05-22T21:06:46.305Z,0.00
2019-05-22T21:07:46.283Z,0.00
2019-05-22T21:08:46.280Z,0.00
2019-05-22T21:09:46.260Z,0.00
2019-05-22T21:10:46.350Z,0.00
2019-05-22T21:11:46.250Z,0.00
2019-05-22T21:12:46.238Z,0.00
2019-05-22T21:13:46.223Z,0.00
2019-05-22T21:14:46.244Z,0.00
2019-05-22T21:15:46.206Z,0.00
2019-05-22T21:16:46.196Z,0.00
2019-05-22T21:17:46.190Z,0.00
2019-05-22T21:18:46.194Z,0.00
2019-05-22T21:19:46.163Z,0.00
2019-05-22T21:20:54.782Z,0.00
2019-05-22T21:21:47.131Z,0.00
2019-05-22T21:22:46.125Z,0.00
2019-05-22T21:23:46.187Z,0.00
2019-05-22T21:24:46.102Z,0.00
2019-05-22T21:25:46.111Z,0.00
2019-05-22T21:26:46.085Z,0.00
2019-05-22T21:27:54.072Z,0.00
2019-05-22T21:28:46.253Z,0.00
2019-05-22T21:29:46.468Z,0.00
2019-05-22T21:30:46.557Z,0.00
2019-05-22T21:31:47.861Z,0.00
2019-05-22T21:32:46.029Z,0.00
2019-05-22T21:33:46.253Z,0.00
2019-05-22T21:34:47.754Z,0.00
2019-05-22T21:35:46.133Z,0.00
2019-05-22T21:36:46.880Z,0.00
2019-05-22T21:37:46.133Z,0.00
2019-05-22T21:38:45.964Z,0.00
2019-05-22T21:39:46.093Z,0.00
2019-05-22T21:40:48.775Z,0.00
2019-05-22T21:41:46.056Z,0.00
2019-05-22T21:42:46.018Z,0.00
2019-05-22T21:43:46.168Z,0.00
2019-05-22T21:44:46.088Z,0.00
2019-05-22T21:45:46.355Z,0.00
2019-05-22T21:46:46.083Z,0.00
2019-05-22T21:47:45.943Z,0.00
2019-05-22T21:48:45.891Z,0.00
2019-05-22T21:49:45.876Z,0.00
2019-05-22T21:50:46.377Z,0.00
2019-05-22T21:51:46.908Z,0.00
2019-05-22T21:52:45.926Z,0.00
2019-05-22T21:53:46.893Z,0.00
2019-05-22T21:54:45.910Z,0.00
2019-05-22T21:55:46.784Z,0.00
2019-05-22T21:56:46.024Z,0.00
2019-05-22T21:57:45.878Z,0.00
2019-05-22T21:58:45.764Z,0.00
2019-05-22T21:59:45.857Z,0.00
2019-05-22T22:00:45.789Z,0.00
2019-05-22T22:01:45.825Z,0.00
2019-05-22T22:02:45.735Z,0.00
2019-05-22T22:03:45.761Z,0.00
2019-05-22T22:04:46.477Z,0.00
2019-05-22T22:05:45.737Z,0.00
2019-05-22T22:06:45.715Z,0.00
2019-05-22T22:07:45.689Z,0.00
2019-05-22T22:08:46.484Z,0.00
2019-05-22T22:09:45.941Z,0.00
2019-05-22T22:10:45.733Z,0.00
2019-05-22T22:11:45.782Z,0.00
2019-05-22T22:12:45.648Z,0.00
2019-05-22T22:13:46.345Z,0.00
2019-05-22T22:14:45.845Z,0.00
2019-05-22T22:15:45.700Z,0.00
2019-05-22T22:16:45.656Z,0.00
2019-05-22T22:17:45.629Z,0.00
2019-05-22T22:18:45.547Z,0.00
2019-05-22T22:19:45.838Z,0.00
2019-05-22T22:20:45.677Z,0.00
2019-05-22T22:21:45.872Z,0.00
2019-05-22T22:22:45.524Z,0.00
2019-05-22T22:23:45.523Z,0.00
2019-05-22T22:24:45.510Z,0.00
2019-05-22T22:25:45.494Z,0.00
2019-05-22T22:26:45.695Z,0.00
2019-05-22T22:27:45.462Z,0.00
2019-05-22T22:28:45.765Z,0.00
2019-05-22T22:29:45.452Z,0.00
2019-05-22T22:30:45.467Z,0.00
2019-05-22T22:31:45.405Z,0.00
2019-05-22T22:32:45.447Z,0.00
2019-05-22T22:33:45.570Z,0.00
2019-05-22T22:34:46.301Z,0.00
2019-05-22T22:35:45.490Z,0.00
2019-05-22T22:36:45.605Z,0.00
2019-05-22T22:37:45.386Z,0.00
2019-05-22T22:38:45.447Z,0.00
2019-05-22T22:39:45.444Z,0.00
2019-05-22T22:40:45.357Z,0.00
2019-05-22T22:41:45.429Z,0.00
2019-05-22T22:42:45.947Z,0.00
2019-05-22T22:43:45.382Z,0.00
2019-05-22T22:44:45.343Z,0.00
2019-05-22T22:45:45.493Z,0.00
2019-05-22T22:46:45.922Z,0.00
2019-05-22T22:47:45.342Z,0.00
2019-05-22T22:48:45.257Z,0.00
2019-05-22T22:49:45.439Z,0.00
2019-05-22T22:50:45.334Z,0.00
2019-05-22T22:51:45.915Z,0.00
2019-05-22T22:52:45.420Z,0.00
2019-05-22T22:53:45.211Z,0.00
2019-05-22T22:54:45.240Z,0.00
2019-05-22T22:55:45.221Z,0.00
2019-05-22T22:56:45.251Z,0.00
2019-05-22T22:57:46.018Z,0.00
2019-05-22T22:58:45.386Z,0.00
2019-05-22T22:59:45.793Z,0.00
2019-05-22T23:00:45.172Z,0.00
2019-05-22T23:01:45.246Z,0.00
2019-05-22T23:02:45.049Z,0.00
2019-05-22T23:03:45.132Z,0.00
2019-05-22T23:04:45.205Z,0.00
2019-05-22T23:05:45.225Z,0.00
2019-05-22T23:06:45.110Z,0.00
2019-05-22T23:07:45.064Z,0.00
2019-05-22T23:08:45.750Z,0.00
2019-05-22T23:09:45.022Z,0.00
2019-05-22T23:10:45.008Z,0.00
2019-05-22T23:11:45.033Z,0.00
2019-05-22T23:12:45.151Z,0.00
2019-05-22T23:13:44.919Z,0.00
2019-05-22T23:14:45.019Z,0.00
2019-05-22T23:15:45.022Z,0.00
2019-05-22T23:16:44.968Z,0.00
2019-05-22T23:17:45.044Z,0.00
2019-05-22T23:18:45.012Z,0.00
2019-05-22T23:19:45.046Z,0.00
2019-05-22T23:20:44.953Z,0.00
2019-05-22T23:21:45.036Z,0.00
2019-05-22T23:22:44.970Z,0.00
2019-05-22T23:23:44.874Z,0.00
2019-05-22T23:24:44.887Z,0.00
2019-05-22T23:25:44.900Z,0.00
2019-05-22T23:26:45.111Z,0.00
2019-05-22T23:27:45.806Z,0.00
2019-05-22T23:28:44.930Z,0.00
2019-05-22T23:29:44.859Z,0.00
2019-05-22T23:30:44.906Z,0.00
2019-05-22T23:31:44.776Z,0.00
2019-05-22T23:32:44.731Z,0.00
2019-05-22T23:33:44.813Z,0.00
2019-05-22T23:34:44.717Z,0.00
2019-05-22T23:35:44.881Z,0.00
2019-05-22T23:36:45.279Z,0.00
2019-05-22T23:37:44.873Z,0.00
2019-05-22T23:38:44.641Z,0.00
2019-05-22T23:39:44.735Z,0.00
2019-05-22T23:40:44.847Z,0.00
2019-05-22T23:41:44.696Z,0.00
2019-05-22T23:42:45.017Z,0.00
2019-05-22T23:43:44.659Z,0.00
2019-05-22T23:44:44.844Z,0.00
2019-05-22T23:46:45.679Z,0.00
2019-05-22T23:47:44.589Z,0.00
2019-05-22T23:48:44.591Z,0.00
2019-05-22T23:49:45.277Z,0.00
2019-05-22T23:50:44.622Z,0.00
2019-05-22T23:51:44.719Z,0.00
2019-05-22T23:52:44.636Z,0.00
2019-05-22T23:53:44.890Z,0.00
2019-05-22T23:54:44.554Z,0.00
2019-05-22T23:55:44.740Z,0.00
2019-05-22T23:56:44.644Z,0.00
2019-05-22T23:57:44.860Z,0.00
2019-05-22T23:58:52.686Z,0.00
2019-05-22T23:59:45.452Z,0.00
